Aérodrome :
LOGIN :

S'inscrire | Disclaimer

   EN    FR    IT 

 










Légende :    VFR   VFR Marginal   IFR   IFR Intensif   IFR Très Intensif
Visi : 
Plafond : 
>= 8 km
>= 3000ft
5 à 8 km
1000 à 3000 ft
1500m à 5 km
500 à 1000 ft
800 à 1500m
200 à 500 ft
< 800m
< 200 ft
Symboles :   Orages  Brouillard  Fortes neiges  Fortes précipitations  Vent > 20 kt
SIGMETs :   Divers  Orages  Givrage  Turbulence  Onde Orograph.  Cendres Volcan.







- Altitude de l'aérodrome : 183 ft
- Code IATA : HAJ


EDDV - Hanover/Langenhagen Int.

DERNIER METAR :
  • 231620Z 28008KT 9999 FEW048 SCT100 21/10 Q1012 NOSIG

METARs EXPIRÉS :
  • 231550Z 25009KT 210V280 9999 FEW048 SCT100 21/10 Q1012 NOSIG
  • 231520Z 28011KT 240V300 CAVOK 21/11 Q1013 NOSIG
  • 231450Z 24014KT 210V270 CAVOK 21/10 Q1013 NOSIG
  • 231420Z 25010KT 200V300 CAVOK 21/10 Q1012 NOSIG
  • 231350Z 24011KT 200V280 9999 FEW049 22/11 Q1013 NOSIG

TAF TAF EDDV
Valide du 23 à 12h jusqu'au 24 à 12h UTC


231100Z 2312/2412 25010KT 9999 SCT030
TEMPO 2312/2321 4000 SHRA BKN020CB
PROB30
TEMPO 2312/2315 24015G30KT 2500 TSRA
BECMG 2318/2320 20003KT
BECMG 2409/2411 09005KT
Pas de NOTAMs connus pour ce terrain.



MET'MAP, la Météo Aéronautique d'un coup d'oeil ! - Copyright ORBIFLY Décembre 2007 - Disclaimer

ORBIFLY MET'MAP TEAM :

Programmation & Développement : Alexandra Zaïnal
Conception & Développement : Baudouin d'Aumeries
Co-Programmation & Développement : Marc-Olivier Méhu
Soutien technique & logistique : Manuel Goepfert

Contact : metmap@orbifly.com




SOURCES & CREDITS :

   NOAA